createdAt,value
2023-07-08T00:00:37.675Z,3.88
2023-07-08T00:01:39.967Z,4.10
2023-07-08T00:02:43.194Z,4.60
2023-07-08T00:03:46.409Z,4.13
2023-07-08T00:04:48.895Z,4.15
2023-07-08T00:05:55.624Z,3.78
2023-07-08T00:06:57.869Z,3.67
2023-07-08T00:08:00.195Z,3.83
2023-07-08T00:09:02.825Z,4.22
2023-07-08T00:10:23.821Z,3.42
2023-07-08T00:12:28.895Z,3.85
2023-07-08T00:13:31.245Z,3.90
2023-07-08T00:14:33.872Z,4.20
2023-07-08T00:15:37.534Z,4.32
2023-07-08T00:16:39.798Z,4.40
2023-07-08T00:17:42.439Z,4.28
2023-07-08T00:18:44.948Z,4.50
2023-07-08T00:19:48.677Z,3.60
2023-07-08T00:20:51.805Z,4.13
2023-07-08T00:21:54.118Z,4.32
2023-07-08T00:22:56.655Z,4.80
2023-07-08T00:23:58.886Z,4.95
2023-07-08T00:25:01.313Z,4.80
2023-07-08T00:26:11.771Z,4.15
2023-07-08T00:27:14.495Z,3.88
2023-07-08T00:28:20.733Z,4.07
2023-07-08T00:29:35.686Z,4.07
2023-07-08T00:30:39.112Z,3.83
2023-07-08T00:31:41.547Z,4.47
2023-07-08T00:32:43.789Z,3.90
2023-07-08T00:33:46.019Z,4.40
2023-07-08T00:34:48.725Z,4.15
2023-07-08T00:35:51.017Z,4.35
2023-07-08T00:36:53.454Z,4.50
2023-07-08T00:38:02.470Z,4.40
2023-07-08T00:39:15.820Z,4.18
2023-07-08T00:40:20.662Z,4.10
2023-07-08T00:41:25.836Z,4.45
2023-07-08T00:42:28.392Z,4.00
2023-07-08T00:43:51.731Z,4.45
2023-07-08T00:44:56.728Z,4.20
2023-07-08T00:46:15.082Z,4.75
2023-07-08T00:47:19.406Z,4.47
2023-07-08T00:48:30.978Z,4.60
2023-07-08T00:49:58.671Z,4.30
2023-07-08T00:51:02.764Z,4.03
2023-07-08T00:52:31.964Z,4.30
2023-07-08T00:53:37.498Z,4.32
2023-07-08T00:54:40.007Z,4.45
2023-07-08T00:55:42.751Z,4.22
2023-07-08T00:56:58.500Z,4.35
2023-07-08T00:58:01.700Z,4.93
2023-07-08T00:59:13.053Z,4.30
2023-07-08T01:00:18.271Z,4.05
2023-07-08T01:01:22.932Z,4.00
2023-07-08T01:02:27.811Z,4.05
2023-07-08T01:03:31.892Z,4.15
2023-07-08T01:04:57.466Z,4.75
2023-07-08T01:06:03.459Z,4.47
2023-07-08T01:07:08.979Z,4.45
2023-07-08T01:08:12.074Z,4.30
2023-07-08T01:09:16.988Z,4.05
2023-07-08T01:10:27.185Z,4.53
2023-07-08T01:11:31.374Z,4.22
2023-07-08T01:12:41.769Z,5.03
2023-07-08T01:14:50.009Z,4.30
2023-07-08T01:15:53.290Z,4.97
2023-07-08T01:16:55.893Z,4.07
2023-07-08T01:17:58.982Z,4.60
2023-07-08T01:19:04.056Z,4.60
2023-07-08T01:20:07.566Z,4.82
2023-07-08T01:21:40.291Z,4.15
2023-07-08T01:22:44.042Z,4.15
2023-07-08T01:23:46.648Z,4.20
2023-07-08T01:24:49.287Z,4.88
2023-07-08T01:25:52.068Z,4.50
2023-07-08T01:26:54.915Z,4.05
2023-07-08T01:27:58.844Z,4.28
2023-07-08T01:29:04.693Z,4.78
2023-07-08T01:30:08.021Z,3.92
2023-07-08T01:31:10.813Z,4.05
2023-07-08T01:32:19.640Z,4.10
2023-07-08T01:33:25.869Z,4.15
2023-07-08T01:34:28.298Z,4.53
2023-07-08T01:35:31.127Z,4.50
2023-07-08T01:36:43.534Z,4.55
2023-07-08T01:37:56.002Z,4.72
2023-07-08T01:38:58.629Z,4.50
2023-07-08T01:40:24.270Z,4.25
2023-07-08T01:41:26.641Z,4.60
2023-07-08T01:42:28.837Z,4.82
2023-07-08T01:43:31.094Z,4.60
2023-07-08T01:44:37.932Z,4.93
2023-07-08T01:45:42.974Z,4.90
2023-07-08T01:46:45.569Z,4.68
2023-07-08T01:47:54.069Z,4.53
2023-07-08T01:49:00.626Z,4.38
2023-07-08T01:50:03.399Z,4.80
2023-07-08T01:51:07.768Z,4.65
2023-07-08T01:52:12.844Z,5.25
2023-07-08T01:53:22.507Z,4.65
2023-07-08T01:54:24.816Z,5.13
2023-07-08T01:55:31.589Z,4.82
2023-07-08T01:56:34.372Z,4.50
2023-07-08T01:57:36.857Z,4.53
2023-07-08T01:58:39.380Z,5.00
2023-07-08T01:59:41.585Z,5.10
2023-07-08T02:00:44.740Z,4.35
2023-07-08T02:01:48.500Z,4.68
2023-07-08T02:02:52.803Z,4.60
2023-07-08T02:03:55.161Z,4.82
2023-07-08T02:04:57.551Z,4.63
2023-07-08T02:06:00.091Z,5.18
2023-07-08T02:07:03.149Z,5.00
2023-07-08T02:08:05.902Z,4.78
2023-07-08T02:09:08.282Z,4.63
2023-07-08T02:10:11.250Z,4.70
2023-07-08T02:11:17.848Z,4.90
2023-07-08T02:12:20.121Z,5.28
2023-07-08T02:13:24.102Z,4.38
2023-07-08T02:14:27.735Z,4.13
2023-07-08T02:15:30.477Z,4.75
2023-07-08T02:16:32.812Z,4.85
2023-07-08T02:17:35.051Z,4.57
2023-07-08T02:18:37.493Z,5.10
2023-07-08T02:19:40.113Z,4.70
2023-07-08T02:20:44.492Z,5.30
2023-07-08T02:21:46.731Z,5.00
2023-07-08T02:22:49.104Z,4.88
2023-07-08T02:23:53.232Z,4.90
2023-07-08T02:24:56.475Z,5.22
2023-07-08T02:25:58.967Z,5.20
2023-07-08T02:27:01.234Z,5.80
2023-07-08T02:28:04.026Z,4.53
2023-07-08T02:29:06.431Z,5.43
2023-07-08T02:30:10.115Z,5.15
2023-07-08T02:31:12.624Z,5.18
2023-07-08T02:32:14.978Z,5.80
2023-07-08T02:33:18.842Z,5.68
2023-07-08T02:34:21.297Z,5.82
2023-07-08T02:35:26.708Z,5.53
2023-07-08T02:36:29.184Z,5.88
2023-07-08T02:38:08.296Z,6.10
2023-07-08T02:39:11.485Z,6.15
2023-07-08T02:40:15.315Z,6.07
2023-07-08T02:41:17.911Z,5.60
2023-07-08T02:42:20.213Z,5.60
2023-07-08T02:43:22.637Z,6.57
2023-07-08T02:44:24.966Z,5.88
2023-07-08T02:45:27.201Z,6.38
2023-07-08T02:46:29.772Z,5.97
2023-07-08T02:47:32.060Z,5.53
2023-07-08T02:48:34.569Z,5.75
2023-07-08T02:49:36.868Z,6.22
2023-07-08T02:50:39.318Z,5.82
2023-07-08T02:51:41.730Z,5.88
2023-07-08T02:52:43.935Z,4.97
2023-07-08T02:53:46.439Z,5.45
2023-07-08T02:54:48.662Z,5.90
2023-07-08T02:55:51.121Z,6.22
2023-07-08T02:56:53.618Z,5.72
2023-07-08T02:57:55.845Z,5.30
2023-07-08T02:58:58.339Z,5.90
2023-07-08T03:00:00.670Z,5.68
2023-07-08T03:01:03.605Z,5.55
2023-07-08T03:02:07.213Z,5.18
2023-07-08T03:03:09.576Z,4.90
2023-07-08T03:04:15.352Z,5.28
2023-07-08T03:05:17.589Z,5.40
2023-07-08T03:06:20.045Z,5.53
2023-07-08T03:07:22.434Z,5.75
2023-07-08T03:08:24.741Z,5.80
2023-07-08T03:09:28.437Z,5.53
2023-07-08T03:10:30.663Z,5.40
2023-07-08T03:11:33.051Z,5.25
2023-07-08T03:12:35.507Z,6.13
2023-07-08T03:13:38.877Z,5.90
2023-07-08T03:14:41.767Z,5.78
2023-07-08T03:15:45.896Z,5.07
2023-07-08T03:16:48.306Z,5.78
2023-07-08T03:17:51.053Z,5.15
2023-07-08T03:18:53.319Z,5.32
2023-07-08T03:19:56.034Z,4.95
2023-07-08T03:20:59.441Z,5.35
2023-07-08T03:22:06.160Z,5.38
2023-07-08T03:23:08.364Z,5.90
2023-07-08T03:24:14.737Z,5.45
2023-07-08T03:25:20.864Z,5.57
2023-07-08T03:26:32.622Z,5.72
2023-07-08T03:27:36.719Z,5.80
2023-07-08T03:28:38.965Z,5.45
2023-07-08T03:29:42.481Z,5.60
2023-07-08T03:30:51.969Z,6.00
2023-07-08T03:31:57.729Z,5.65
2023-07-08T03:33:01.423Z,5.47
2023-07-08T03:34:03.805Z,5.63
2023-07-08T03:35:06.608Z,5.38
2023-07-08T03:36:23.730Z,5.18
2023-07-08T03:37:26.228Z,5.35
2023-07-08T03:38:28.462Z,5.63
2023-07-08T03:39:32.735Z,5.22
2023-07-08T03:40:35.204Z,5.35
2023-07-08T03:41:37.453Z,5.28
2023-07-08T03:42:39.908Z,5.47
2023-07-08T03:43:42.585Z,5.68
2023-07-08T03:44:44.929Z,5.55
2023-07-08T03:45:47.876Z,5.30
2023-07-08T03:46:52.206Z,5.35
2023-07-08T03:47:55.816Z,5.45
2023-07-08T03:48:58.119Z,6.10
2023-07-08T03:50:00.409Z,5.30
2023-07-08T03:51:02.931Z,5.65
2023-07-08T03:52:05.868Z,5.53
2023-07-08T03:53:10.440Z,6.03
2023-07-08T03:54:14.897Z,5.93
2023-07-08T03:55:17.391Z,6.55
2023-07-08T03:56:20.232Z,5.63
2023-07-08T03:57:22.465Z,5.97
2023-07-08T03:58:24.973Z,5.82
2023-07-08T03:59:27.372Z,5.80
2023-07-08T04:00:31.943Z,5.50
2023-07-08T04:01:36.989Z,5.95
2023-07-08T04:02:44.006Z,5.38
2023-07-08T04:03:55.984Z,5.95
2023-07-08T04:04:58.338Z,6.07
2023-07-08T04:06:00.547Z,4.80
2023-07-08T04:07:03.102Z,5.82
2023-07-08T04:08:06.162Z,5.05
2023-07-08T04:09:08.621Z,5.75
2023-07-08T04:10:11.359Z,5.47
2023-07-08T04:11:16.648Z,5.68
2023-07-08T04:12:19.191Z,5.45
2023-07-08T04:13:21.694Z,5.88
2023-07-08T04:14:24.002Z,5.60
2023-07-08T04:15:26.865Z,5.57
2023-07-08T04:17:01.771Z,5.80
2023-07-08T04:18:04.401Z,5.43
2023-07-08T04:19:14.451Z,5.70
2023-07-08T04:20:20.235Z,5.18
2023-07-08T04:21:24.041Z,6.32
2023-07-08T04:22:26.524Z,5.63
2023-07-08T04:23:28.750Z,5.72
2023-07-08T04:24:31.197Z,5.75
2023-07-08T04:25:33.484Z,5.70
2023-07-08T04:26:36.701Z,5.05
2023-07-08T04:27:40.363Z,5.25
2023-07-08T04:28:43.632Z,5.72
2023-07-08T04:29:46.214Z,5.55
2023-07-08T04:30:49.111Z,6.25
2023-07-08T04:31:51.785Z,5.50
2023-07-08T04:32:54.326Z,5.07
2023-07-08T04:33:57.294Z,5.65
2023-07-08T04:34:59.734Z,5.07
2023-07-08T04:36:02.580Z,5.57
2023-07-08T04:37:07.895Z,5.38
2023-07-08T04:38:25.312Z,5.68
2023-07-08T04:39:27.875Z,4.95
2023-07-08T04:40:30.223Z,5.32
2023-07-08T04:41:32.486Z,5.43
2023-07-08T04:42:36.817Z,5.57
2023-07-08T04:43:40.892Z,4.97
2023-07-08T04:44:43.693Z,5.10
2023-07-08T04:45:54.290Z,5.15
2023-07-08T04:46:57.589Z,5.97
2023-07-08T04:48:00.075Z,5.22
2023-07-08T04:49:04.269Z,5.20
2023-07-08T04:50:07.073Z,5.20
2023-07-08T04:51:09.510Z,4.97
2023-07-08T04:52:17.417Z,5.53
2023-07-08T04:53:19.779Z,5.88
2023-07-08T04:54:22.253Z,5.00
2023-07-08T04:55:24.765Z,6.03
2023-07-08T04:56:39.862Z,4.88
2023-07-08T04:57:42.486Z,6.13
2023-07-08T04:58:44.911Z,5.07
2023-07-08T04:59:47.389Z,5.57
2023-07-08T05:00:49.652Z,5.60
2023-07-08T05:01:53.547Z,5.18
2023-07-08T05:02:55.905Z,5.53
2023-07-08T05:03:58.464Z,5.35
2023-07-08T05:05:00.910Z,6.03
2023-07-08T05:06:03.137Z,5.55
2023-07-08T05:07:05.545Z,5.55
2023-07-08T05:08:08.494Z,5.53
2023-07-08T05:09:11.232Z,5.22
2023-07-08T05:10:13.979Z,5.32
2023-07-08T05:11:16.189Z,5.47
2023-07-08T05:12:18.658Z,6.20
2023-07-08T05:13:20.864Z,6.10
2023-07-08T05:14:23.277Z,6.05
2023-07-08T05:15:25.801Z,6.07
2023-07-08T05:16:28.086Z,5.82
2023-07-08T05:17:30.935Z,6.07
2023-07-08T05:18:33.383Z,6.18
2023-07-08T05:19:35.716Z,6.97
2023-07-08T05:20:38.264Z,6.57
2023-07-08T05:21:40.532Z,6.60
2023-07-08T05:22:44.165Z,7.03
2023-07-08T05:23:47.458Z,6.38
2023-07-08T05:24:49.662Z,6.40
2023-07-08T05:25:52.575Z,6.40
2023-07-08T05:26:54.792Z,6.15
2023-07-08T05:27:57.493Z,6.45
2023-07-08T05:29:00.056Z,6.40
2023-07-08T05:30:07.177Z,6.13
2023-07-08T05:31:09.867Z,7.03
2023-07-08T05:32:12.243Z,6.78
2023-07-08T05:33:14.516Z,6.00
2023-07-08T05:34:17.120Z,6.40
2023-07-08T05:35:19.583Z,6.57
2023-07-08T05:36:21.820Z,7.50
2023-07-08T05:37:26.355Z,7.03
2023-07-08T05:38:28.729Z,7.85
2023-07-08T05:39:32.459Z,7.53
2023-07-08T05:40:34.896Z,8.18
2023-07-08T05:41:37.292Z,8.60
2023-07-08T05:42:39.815Z,8.95
2023-07-08T05:43:42.016Z,9.75
2023-07-08T05:44:44.391Z,9.63
2023-07-08T05:45:54.901Z,8.30
2023-07-08T05:47:08.098Z,8.23
2023-07-08T05:48:10.484Z,6.75
2023-07-08T05:49:13.020Z,6.85
2023-07-08T05:50:15.318Z,6.70
2023-07-08T05:51:18.147Z,6.28
2023-07-08T05:52:20.683Z,7.15
2023-07-08T05:53:22.908Z,6.47
2023-07-08T05:54:25.879Z,6.22
2023-07-08T05:55:28.921Z,5.93
2023-07-08T05:56:31.804Z,5.30
2023-07-08T05:57:34.042Z,5.30
2023-07-08T05:58:36.577Z,5.82
2023-07-08T05:59:44.339Z,5.80
2023-07-08T06:00:47.176Z,5.57
2023-07-08T06:01:49.658Z,5.28
2023-07-08T06:02:52.039Z,4.97
2023-07-08T06:03:54.439Z,5.40
2023-07-08T06:04:56.707Z,4.85
2023-07-08T06:05:59.457Z,4.80
2023-07-08T06:07:02.028Z,5.07
2023-07-08T06:08:05.159Z,4.80
2023-07-08T06:09:07.549Z,5.28
2023-07-08T06:10:10.002Z,5.68
2023-07-08T06:11:12.586Z,4.80
2023-07-08T06:12:14.795Z,4.53
2023-07-08T06:13:17.215Z,4.97
2023-07-08T06:14:19.634Z,4.75
2023-07-08T06:15:21.969Z,4.68
2023-07-08T06:16:39.052Z,4.75
2023-07-08T06:17:43.069Z,4.47
2023-07-08T06:18:45.517Z,4.10
2023-07-08T06:19:47.755Z,4.60
2023-07-08T06:20:58.001Z,4.78
2023-07-08T06:23:22.659Z,3.85
2023-07-08T06:24:25.220Z,4.53
2023-07-08T06:25:27.999Z,4.60
2023-07-08T06:26:30.202Z,4.60
2023-07-08T06:27:32.598Z,4.32
2023-07-08T06:28:34.870Z,4.38
2023-07-08T06:29:37.124Z,3.67
2023-07-08T06:30:39.563Z,4.30
2023-07-08T06:31:42.316Z,3.85
2023-07-08T06:32:44.758Z,4.07
2023-07-08T06:33:47.110Z,4.13
2023-07-08T06:34:49.448Z,4.15
2023-07-08T06:35:51.842Z,3.75
2023-07-08T06:36:54.241Z,3.83
2023-07-08T06:37:56.701Z,4.10
2023-07-08T06:38:58.985Z,3.65
2023-07-08T06:40:01.406Z,4.07
2023-07-08T06:41:03.644Z,4.30
2023-07-08T06:42:06.831Z,3.70
2023-07-08T06:43:09.806Z,3.35
2023-07-08T06:44:20.662Z,3.80
2023-07-08T06:45:23.327Z,3.67
2023-07-08T06:46:25.678Z,3.90
2023-07-08T06:47:28.121Z,4.00
2023-07-08T06:48:30.403Z,3.65
2023-07-08T06:49:32.607Z,4.13
2023-07-08T06:50:35.038Z,3.72
2023-07-08T06:51:37.379Z,4.10
2023-07-08T06:52:39.781Z,3.72
2023-07-08T06:53:42.195Z,3.40
2023-07-08T06:54:44.422Z,4.03
2023-07-08T06:55:46.754Z,3.63
2023-07-08T06:56:49.199Z,3.72
2023-07-08T06:57:51.565Z,3.80
2023-07-08T06:58:53.788Z,3.53
2023-07-08T06:59:56.186Z,3.85
2023-07-08T07:00:58.747Z,3.60
2023-07-08T07:02:01.341Z,3.67
2023-07-08T07:03:04.117Z,3.78
2023-07-08T07:04:06.491Z,3.38
2023-07-08T07:05:08.991Z,4.00
2023-07-08T07:06:11.183Z,3.83
2023-07-08T07:07:13.664Z,3.53
2023-07-08T07:08:16.160Z,3.97
2023-07-08T07:09:18.431Z,3.50
2023-07-08T07:10:21.468Z,3.95
2023-07-08T07:11:23.777Z,3.97
2023-07-08T07:12:27.149Z,4.07
2023-07-08T07:13:29.751Z,3.90
2023-07-08T07:15:37.126Z,4.10
2023-07-08T07:16:39.358Z,3.92
2023-07-08T07:17:41.850Z,3.90
2023-07-08T07:18:44.314Z,3.97
2023-07-08T07:19:46.541Z,3.90
2023-07-08T07:20:55.372Z,3.60
2023-07-08T07:21:57.589Z,4.05
2023-07-08T07:23:00.105Z,4.22
2023-07-08T07:24:02.574Z,3.60
2023-07-08T07:25:05.707Z,3.60
2023-07-08T07:26:08.652Z,3.50
2023-07-08T07:27:11.659Z,3.33
2023-07-08T07:28:15.400Z,3.38
2023-07-08T07:29:18.629Z,3.90
2023-07-08T07:30:21.021Z,3.50
2023-07-08T07:31:23.336Z,3.55
2023-07-08T07:32:25.677Z,3.67
2023-07-08T07:33:28.378Z,3.72
2023-07-08T07:34:30.773Z,3.65
2023-07-08T07:35:32.988Z,3.55
2023-07-08T07:36:35.376Z,3.30
2023-07-08T07:37:37.786Z,4.18
2023-07-08T07:38:40.471Z,3.50
2023-07-08T07:39:43.323Z,3.67
2023-07-08T07:40:46.716Z,3.53
2023-07-08T07:41:48.922Z,3.33
2023-07-08T07:42:51.169Z,3.35
2023-07-08T07:43:53.867Z,3.03
2023-07-08T07:44:56.091Z,3.50
2023-07-08T07:45:58.772Z,3.70
2023-07-08T07:47:01.345Z,3.47
2023-07-08T07:48:04.462Z,3.85
2023-07-08T07:49:07.083Z,3.70
2023-07-08T07:50:11.145Z,3.65
2023-07-08T07:51:13.595Z,3.45
2023-07-08T07:52:19.533Z,3.28
2023-07-08T07:53:21.790Z,4.32
2023-07-08T07:54:24.272Z,4.15
2023-07-08T07:55:26.918Z,4.47
2023-07-08T07:56:29.496Z,4.40
2023-07-08T07:57:31.716Z,3.67
2023-07-08T07:58:34.064Z,3.92
2023-07-08T07:59:36.589Z,4.28
2023-07-08T08:00:40.052Z,3.10
2023-07-08T08:01:43.608Z,3.70
2023-07-08T08:02:46.288Z,3.20
2023-07-08T08:03:52.013Z,3.47
2023-07-08T08:04:55.168Z,3.08
2023-07-08T08:05:57.574Z,3.20
2023-07-08T08:07:02.096Z,3.30
2023-07-08T08:08:05.036Z,3.30
2023-07-08T08:09:07.955Z,3.30
2023-07-08T08:10:10.847Z,3.75
2023-07-08T08:11:13.089Z,3.10
2023-07-08T08:12:15.483Z,3.00
2023-07-08T08:13:17.776Z,3.28
2023-07-08T08:14:20.456Z,3.22
2023-07-08T08:15:23.776Z,3.20
2023-07-08T08:16:26.157Z,3.65
2023-07-08T08:17:28.508Z,3.28
2023-07-08T08:18:31.516Z,3.38
2023-07-08T08:19:34.202Z,2.95
2023-07-08T08:20:36.497Z,3.17
2023-07-08T08:21:38.774Z,3.53
2023-07-08T08:22:41.186Z,2.90
2023-07-08T08:23:43.910Z,3.45
2023-07-08T08:24:46.339Z,3.20
2023-07-08T08:25:48.686Z,3.88
2023-07-08T08:26:51.053Z,3.45
2023-07-08T08:27:53.711Z,3.85
2023-07-08T08:28:56.843Z,3.20
2023-07-08T08:29:59.371Z,3.40
2023-07-08T08:31:01.725Z,3.55
2023-07-08T08:32:04.226Z,3.15
2023-07-08T08:33:06.756Z,3.10
2023-07-08T08:34:09.059Z,3.05
2023-07-08T08:35:11.441Z,3.25
2023-07-08T08:36:13.776Z,3.33
2023-07-08T08:37:15.954Z,3.53
2023-07-08T08:38:18.790Z,3.20
2023-07-08T08:39:20.984Z,3.17
2023-07-08T08:40:23.458Z,3.45
2023-07-08T08:41:36.660Z,3.30
2023-07-08T08:42:47.844Z,3.30
2023-07-08T08:43:52.776Z,3.10
2023-07-08T08:44:58.630Z,3.20
2023-07-08T08:46:17.541Z,3.22
2023-07-08T08:47:36.049Z,3.83
2023-07-08T08:49:06.175Z,2.72
2023-07-08T08:50:17.963Z,3.25
2023-07-08T08:51:20.704Z,2.90
2023-07-08T08:52:23.183Z,3.38
2023-07-08T08:53:25.659Z,3.40
2023-07-08T08:54:30.532Z,3.20
2023-07-08T08:55:33.241Z,3.65
2023-07-08T08:57:13.150Z,3.17
2023-07-08T08:58:41.207Z,3.20
2023-07-08T08:59:58.258Z,2.50
2023-07-08T09:01:08.038Z,2.92
2023-07-08T09:02:43.582Z,3.22
2023-07-08T09:03:53.560Z,3.55
2023-07-08T09:05:02.906Z,3.47
2023-07-08T09:06:12.899Z,3.17
2023-07-08T09:07:20.563Z,3.15
2023-07-08T09:08:32.735Z,3.60
2023-07-08T09:09:46.660Z,3.25
2023-07-08T09:11:06.177Z,3.15
2023-07-08T09:12:19.208Z,3.03
2023-07-08T09:13:36.778Z,3.28
2023-07-08T09:14:43.031Z,3.33
2023-07-08T09:15:45.499Z,3.00
2023-07-08T09:16:55.921Z,3.40
2023-07-08T09:18:13.182Z,3.15
2023-07-08T09:19:23.548Z,3.30
2023-07-08T09:20:29.846Z,2.75
2023-07-08T09:21:42.962Z,3.40
2023-07-08T09:22:59.685Z,3.05
2023-07-08T09:24:08.684Z,3.00
2023-07-08T09:25:16.775Z,3.08
2023-07-08T09:26:23.848Z,3.28
2023-07-08T09:27:26.025Z,2.97
2023-07-08T09:28:45.701Z,3.00
2023-07-08T09:29:49.180Z,3.17
2023-07-08T09:30:55.642Z,3.63
2023-07-08T09:31:59.499Z,4.05
2023-07-08T09:33:07.720Z,3.72
2023-07-08T09:34:18.978Z,3.75
2023-07-08T09:35:29.349Z,3.55
2023-07-08T09:36:31.669Z,4.85
2023-07-08T09:37:36.583Z,3.25
2023-07-08T09:38:40.684Z,3.75
2023-07-08T09:39:42.898Z,3.30
2023-07-08T09:40:50.734Z,3.38
2023-07-08T09:41:54.258Z,4.38
2023-07-08T09:43:02.538Z,3.50
2023-07-08T09:44:06.244Z,3.13
2023-07-08T09:45:19.540Z,3.17
2023-07-08T09:46:23.859Z,3.53
2023-07-08T09:47:35.306Z,3.45
2023-07-08T09:48:38.446Z,3.70
2023-07-08T09:49:40.734Z,3.72
2023-07-08T09:50:45.441Z,3.28
2023-07-08T09:51:48.293Z,3.17
2023-07-08T09:52:53.117Z,3.10
2023-07-08T09:53:55.597Z,3.25
2023-07-08T09:54:57.818Z,3.63
2023-07-08T09:56:03.692Z,2.65
2023-07-08T09:57:32.169Z,3.33
2023-07-08T09:58:39.047Z,3.35
2023-07-08T09:59:48.905Z,3.20
2023-07-08T10:00:59.271Z,3.15
2023-07-08T10:02:39.504Z,3.08
2023-07-08T10:03:43.291Z,3.22
2023-07-08T10:04:45.974Z,4.15
2023-07-08T10:05:50.008Z,3.97
2023-07-08T10:06:55.653Z,3.10
2023-07-08T10:07:59.143Z,3.70
2023-07-08T10:09:04.569Z,2.78
2023-07-08T10:10:15.766Z,3.80
2023-07-08T10:11:18.138Z,3.60
2023-07-08T10:12:21.894Z,3.67
2023-07-08T10:13:35.019Z,2.90
2023-07-08T10:14:46.190Z,3.85
2023-07-08T10:15:57.727Z,3.03
2023-07-08T10:17:00.445Z,4.70
2023-07-08T10:18:02.914Z,2.90
2023-07-08T10:19:18.263Z,3.25
2023-07-08T10:20:22.298Z,2.90
2023-07-08T10:21:53.869Z,3.15
2023-07-08T10:23:06.662Z,3.70
2023-07-08T10:24:14.668Z,3.17
2023-07-08T10:25:33.032Z,3.15
2023-07-08T10:26:36.932Z,3.60
2023-07-08T10:27:48.664Z,3.50
2023-07-08T10:28:50.833Z,5.78
2023-07-08T10:30:24.237Z,4.32
2023-07-08T10:31:34.762Z,3.50
2023-07-08T10:32:42.939Z,3.80
2023-07-08T10:34:22.005Z,3.28
2023-07-08T10:35:39.679Z,3.60
2023-07-08T10:36:42.078Z,4.22
2023-07-08T10:37:58.091Z,3.42
2023-07-08T10:39:32.653Z,3.55
2023-07-08T10:40:54.312Z,3.10
2023-07-08T10:42:35.520Z,4.18
2023-07-08T10:44:05.870Z,3.80
2023-07-08T10:45:08.203Z,3.65
2023-07-08T10:46:10.663Z,3.63
2023-07-08T10:47:41.228Z,3.75
2023-07-08T10:50:08.747Z,3.30
2023-07-08T10:51:26.266Z,2.97
2023-07-08T10:53:03.930Z,3.33
2023-07-08T10:54:43.279Z,3.00
2023-07-08T10:55:53.994Z,3.67
2023-07-08T10:57:11.073Z,3.55
2023-07-08T10:59:41.049Z,3.00
2023-07-08T11:01:18.218Z,2.90
2023-07-08T11:02:51.608Z,2.92
2023-07-08T11:04:02.909Z,3.83
2023-07-08T11:05:23.932Z,3.45
2023-07-08T11:07:01.619Z,3.47
2023-07-08T11:08:22.295Z,3.45
2023-07-08T11:10:37.704Z,3.10
2023-07-08T11:11:56.779Z,3.17
2023-07-08T11:13:07.267Z,3.08
2023-07-08T11:14:21.009Z,3.17
2023-07-08T11:15:31.996Z,2.63
2023-07-08T11:16:42.460Z,3.05
2023-07-08T11:19:14.137Z,3.63
2023-07-08T11:20:38.191Z,3.25
2023-07-08T11:22:01.400Z,2.80
2023-07-08T11:23:27.829Z,3.35
2023-07-08T11:24:56.074Z,3.40
2023-07-08T11:26:27.984Z,3.13
2023-07-08T11:27:37.509Z,2.80
2023-07-08T11:28:39.941Z,3.40
2023-07-08T11:29:49.313Z,3.47
2023-07-08T11:30:53.066Z,3.20
2023-07-08T11:31:56.487Z,3.03
2023-07-08T11:33:04.779Z,4.00
2023-07-08T11:34:09.652Z,4.00
2023-07-08T11:35:34.263Z,4.20
2023-07-08T11:36:37.279Z,3.55
2023-07-08T11:37:40.799Z,3.40
2023-07-08T11:38:50.316Z,3.53
2023-07-08T11:40:20.250Z,3.42
2023-07-08T11:41:29.982Z,3.20
2023-07-08T11:42:46.043Z,3.47
2023-07-08T11:44:00.113Z,3.80
2023-07-08T11:45:07.997Z,3.30
2023-07-08T11:46:19.158Z,3.58
2023-07-08T11:47:41.936Z,3.58
2023-07-08T11:48:48.347Z,3.35
2023-07-08T11:49:52.681Z,3.33
2023-07-08T11:50:55.851Z,3.20
2023-07-08T11:51:59.749Z,3.40
2023-07-08T11:53:07.350Z,3.45
2023-07-08T11:54:31.595Z,3.60
2023-07-08T11:55:43.586Z,3.50
2023-07-08T11:56:59.621Z,3.90
2023-07-08T11:58:01.935Z,3.30
2023-07-08T11:59:19.866Z,3.30
2023-07-08T12:00:25.806Z,3.25
2023-07-08T12:01:33.842Z,3.42
2023-07-08T12:02:54.235Z,3.20
2023-07-08T12:04:21.234Z,3.05
2023-07-08T12:05:38.104Z,3.40
2023-07-08T12:06:40.479Z,3.08
2023-07-08T12:07:47.182Z,3.30
2023-07-08T12:08:50.720Z,3.55
2023-07-08T12:10:14.919Z,3.22
2023-07-08T12:11:17.341Z,3.17
2023-07-08T12:12:26.135Z,3.30
2023-07-08T12:13:30.708Z,3.10
2023-07-08T12:14:33.803Z,3.45
2023-07-08T12:15:36.175Z,3.28
2023-07-08T12:16:38.718Z,3.47
2023-07-08T12:17:42.989Z,3.70
2023-07-08T12:18:47.372Z,3.00
2023-07-08T12:19:51.929Z,3.55
2023-07-08T12:21:00.308Z,3.30
2023-07-08T12:22:03.373Z,3.80
2023-07-08T12:23:22.849Z,3.20
2023-07-08T12:24:28.053Z,2.92
2023-07-08T12:25:37.456Z,3.75
2023-07-08T12:26:40.794Z,3.63
2023-07-08T12:27:44.764Z,3.60
2023-07-08T12:28:47.140Z,3.17
2023-07-08T12:29:50.311Z,3.53
2023-07-08T12:30:53.861Z,3.72
2023-07-08T12:31:59.214Z,3.45
2023-07-08T12:33:02.766Z,3.63
2023-07-08T12:34:09.419Z,4.05
2023-07-08T12:35:32.680Z,3.38
2023-07-08T12:36:35.057Z,3.67
2023-07-08T12:37:37.286Z,3.40
2023-07-08T12:38:48.298Z,3.58
2023-07-08T12:40:01.259Z,3.63
2023-07-08T12:41:11.818Z,3.50
2023-07-08T12:42:15.686Z,3.50
2023-07-08T12:43:19.216Z,3.45
2023-07-08T12:44:24.968Z,3.50
2023-07-08T12:45:28.653Z,2.63
2023-07-08T12:46:31.469Z,3.72
2023-07-08T12:47:34.171Z,3.33
2023-07-08T12:48:40.781Z,3.10
2023-07-08T12:49:43.016Z,3.38
2023-07-08T12:50:45.240Z,2.92
2023-07-08T12:51:48.461Z,3.47
2023-07-08T12:52:51.180Z,3.22
2023-07-08T12:53:54.873Z,3.67
2023-07-08T12:54:57.166Z,4.43
2023-07-08T12:56:00.500Z,3.45
2023-07-08T12:57:03.697Z,3.55
2023-07-08T12:58:06.515Z,4.32
2023-07-08T12:59:09.647Z,3.38
2023-07-08T13:00:17.592Z,3.67
2023-07-08T13:01:23.049Z,3.00
2023-07-08T13:02:32.001Z,4.05
2023-07-08T13:03:42.344Z,4.47
2023-07-08T13:04:47.699Z,3.60
2023-07-08T13:05:52.032Z,3.13
2023-07-08T13:06:55.877Z,3.45
2023-07-08T13:07:59.567Z,3.10
2023-07-08T13:09:20.411Z,2.97
2023-07-08T13:10:25.714Z,3.35
2023-07-08T13:11:28.015Z,3.65
2023-07-08T13:12:33.365Z,3.00
2023-07-08T13:13:48.223Z,3.45
2023-07-08T13:14:51.574Z,3.38
2023-07-08T13:15:54.107Z,3.40
2023-07-08T13:16:56.546Z,3.35
2023-07-08T13:17:59.106Z,2.78
2023-07-08T13:19:02.220Z,3.50
2023-07-08T13:20:05.536Z,3.05
2023-07-08T13:21:11.306Z,3.60
2023-07-08T13:22:17.539Z,3.58
2023-07-08T13:23:21.328Z,3.30
2023-07-08T13:24:23.683Z,3.72
2023-07-08T13:25:33.661Z,3.20
2023-07-08T13:26:36.908Z,3.05
2023-07-08T13:27:39.129Z,3.33
2023-07-08T13:28:41.827Z,3.65
2023-07-08T13:29:44.224Z,3.38
2023-07-08T13:31:03.407Z,3.40
2023-07-08T13:32:07.822Z,3.45
2023-07-08T13:33:18.485Z,3.30
2023-07-08T13:34:24.351Z,4.32
2023-07-08T13:35:44.817Z,3.47
2023-07-08T13:36:51.341Z,2.95
2023-07-08T13:37:54.772Z,4.05
2023-07-08T13:38:57.442Z,3.90
2023-07-08T13:40:00.078Z,3.17
2023-07-08T13:41:04.975Z,3.33
2023-07-08T13:42:09.069Z,3.65
2023-07-08T13:43:11.256Z,3.22
2023-07-08T13:44:13.726Z,3.35
2023-07-08T13:45:34.816Z,3.45
2023-07-08T13:46:38.630Z,3.15
2023-07-08T13:47:41.275Z,3.58
2023-07-08T13:48:44.368Z,3.25
2023-07-08T13:49:50.092Z,3.92
2023-07-08T13:51:23.300Z,3.45
2023-07-08T13:52:25.542Z,3.42
2023-07-08T13:53:43.818Z,3.25
2023-07-08T13:54:54.180Z,3.10
2023-07-08T13:56:03.014Z,3.50
2023-07-08T13:57:11.769Z,3.45
2023-07-08T13:58:17.524Z,3.25
2023-07-08T13:59:23.801Z,3.13
2023-07-08T14:00:26.304Z,3.38
2023-07-08T14:01:31.064Z,3.22
2023-07-08T14:02:34.983Z,3.03
2023-07-08T14:03:37.287Z,3.30
2023-07-08T14:04:39.718Z,3.70
2023-07-08T14:05:42.242Z,2.97
2023-07-08T14:06:44.535Z,3.47
2023-07-08T14:07:50.672Z,3.38
2023-07-08T14:08:56.348Z,2.80
2023-07-08T14:09:58.858Z,3.60
2023-07-08T14:11:01.573Z,3.50
2023-07-08T14:12:04.313Z,3.40
2023-07-08T14:13:07.074Z,3.03
2023-07-08T14:14:10.304Z,3.25
2023-07-08T14:15:12.887Z,3.60
2023-07-08T14:16:36.854Z,3.30
2023-07-08T14:17:40.192Z,3.10
2023-07-08T14:18:42.477Z,3.72
2023-07-08T14:19:44.656Z,3.33
2023-07-08T14:20:47.266Z,3.53
2023-07-08T14:21:57.195Z,3.75
2023-07-08T14:22:59.654Z,3.20
2023-07-08T14:24:01.938Z,3.25
2023-07-08T14:25:09.354Z,3.35
2023-07-08T14:26:12.906Z,3.28
2023-07-08T14:27:17.645Z,3.20
2023-07-08T14:28:20.101Z,4.05
2023-07-08T14:29:23.740Z,3.53
2023-07-08T14:30:26.181Z,3.08
2023-07-08T14:31:28.631Z,3.65
2023-07-08T14:32:32.819Z,3.70
2023-07-08T14:33:35.273Z,4.20
2023-07-08T14:34:37.546Z,3.65
2023-07-08T14:35:41.642Z,4.20
2023-07-08T14:36:43.874Z,4.03
2023-07-08T14:37:46.538Z,3.90
2023-07-08T14:38:48.796Z,3.83
2023-07-08T14:39:51.531Z,3.67
2023-07-08T14:40:54.416Z,3.45
2023-07-08T14:41:56.654Z,3.58
2023-07-08T14:43:14.564Z,3.47
2023-07-08T14:44:25.997Z,3.58
2023-07-08T14:45:30.584Z,3.42
2023-07-08T14:46:33.190Z,4.05
2023-07-08T14:47:35.513Z,3.63
2023-07-08T14:48:37.879Z,3.28
2023-07-08T14:49:40.721Z,3.80